Eastern Wv Regional Shepherd Field Martinsburg US
ICAO: KMRB
IATA: MRB
Category: Medium
Scheduled Services: No

Elevation: 565 ft
TransAlt. 18000 ft.

Airport Communications:
POTOMAC APP/DEP:126.1
ASOS:119.925
POTOMAC CLNC DEL:132.075
CTAF:124.3
GND:121.8
PIKESIDE CON ANG:29.7
ELKINS RDO:122.45
MARTINSBURG TWR:124.3
UNICOM:122.95

KMRB Zoom In..

If you have problems with the map follow the link
https://www.worldairports.se/pages/airport.php?
ICAO=KMRB

Runways:

(A) RW 08 length 8815 ft width 150 ft
---- / hdg 79

(B) RW 26 length 8815 ft width 150 ft
ILS 108.30 / hdg 259

Location; KMRB
Day. 21 / Time. 19.53 Zulu
* Altimeter: 30.45
* Temperature: 00° c. 32°f.
* Wind from: 350° Speed 14 kn with Gusts up to 18 kn.
Dewpoint: -11° c.
Visibility: 10 Statute Miles.
Clouds: Clear (automated report).

KMRB 211953Z 35014G18KT 10SM CLR 00/M11 A3045 RMK AO2 SLP318 T00001106


Wind From 350°
Speed 14 kn.

 
 
jpsmedia worldairports.se 2020   terms of use